Time;durP1;ratioP1;P1;durP2;ratioP2;P2;SDS_P1;SDS_P2;PMS_P1;PMS_P2;Temp;Humidity;BMP_temperature;BMP_pressure;BME280_temperature;BME280_humidity;BME280_pressure;Samples;Min_cycle;Max_cycle;Signal;HPM_P1;HPM_P2
2021/12/16 00:01:46;;;;;;;35.03;12.27;;;;;;;;;;5054458;28;20049;-57
2021/12/16 00:10:02;;;;;;;36.17;13.27;;;;;;;;;;5042687;28;20053;-57
2021/12/16 00:31:57;;;;;;;;;;;;;;;;;;5046448;28;20405;-57
2021/12/16 00:34:26;;;;;;;27.10;10.25;;;;;;;;;;5046037;28;19932;-57
2021/12/16 00:36:53;;;;;;;32.80;11.63;;;;;;;;;;5061405;28;20132;-57
2021/12/16 00:39:20;;;;;;;36.92;12.73;;;;;;;;;;5048713;28;20041;-57
2021/12/16 00:41:50;;;;;;;31.70;12.55;;;;;;;;;;5045211;28;20047;-56
2021/12/16 00:44:47;;;;;;;34.55;12.52;;;;;;;;;;5048425;28;20080;-57
2021/12/16 00:47:28;;;;;;;36.75;12.00;;;;;;;;;;5043234;28;20057;-57
2021/12/16 00:50:05;;;;;;;36.95;12.55;;;;;;;;;;5062695;28;20060;-57
2021/12/16 00:55:26;;;;;;;36.58;13.32;;;;;;;;;;5076362;28;20064;-57
2021/12/16 00:57:53;;;;;;;44.33;13.30;;;;;;;;;;5047034;28;20057;-57
2021/12/16 01:00:23;;;;;;;32.80;12.02;;;;;;;;;;5046825;28;20057;-57
2021/12/16 01:03:09;;;;;;;40.20;12.52;;;;;;;;;;5043175;28;20120;-57
2021/12/16 01:06:13;;;;;;;33.15;12.40;;;;;;;;;;5046578;28;20111;-57
2021/12/16 01:33:48;;;;;;;37.80;14.10;;;;;;;;;;5043248;28;20053;-56
2021/12/16 01:36:30;;;;;;;25.80;10.48;;;;;;;;;;5045730;28;20134;-56
2021/12/16 01:39:28;;;;;;;38.05;13.45;;;;;;;;;;5042444;28;20045;-56
2021/12/16 01:50:26;;;;;;;32.70;13.45;;;;;;;;;;5060810;28;20056;-59
2021/12/16 01:53:13;;;;;;;32.55;12.55;;;;;;;;;;5064291;28;20150;-58
2021/12/16 01:55:47;;;;;;;32.95;12.10;;;;;;;;;;5057320;28;20418;-59
2021/12/16 01:58:16;;;;;;;32.40;12.70;;;;;;;;;;5080241;28;20048;-58
2021/12/16 02:00:58;;;;;;;36.25;13.55;;;;;;;;;;5070883;28;20076;-58
2021/12/16 02:03:39;;;;;;;35.00;12.60;;;;;;;;;;5039407;28;20077;-57
2021/12/16 02:06:11;;;;;;;39.65;12.55;;;;;;;;;;5057201;28;20065;-58
2021/12/16 02:08:39;;;;;;;34.08;12.30;;;;;;;;;;5062691;28;20135;-58
2021/12/16 02:11:23;;;;;;;29.30;12.10;;;;;;;;;;5057650;28;20049;-58
2021/12/16 02:27:47;;;;;;;27.02;11.77;;;;;;;;;;5062119;28;20064;-58
2021/12/16 02:33:20;;;;;;;25.02;10.30;;;;;;;;;;5078389;28;20063;-58
2021/12/16 02:35:58;;;;;;;29.92;11.48;;;;;;;;;;5075227;28;20056;-58
2021/12/16 02:38:29;;;;;;;23.83;10.50;;;;;;;;;;5078984;28;20070;-58
2021/12/16 02:40:56;;;;;;;27.83;10.50;;;;;;;;;;5056521;28;20053;-58
2021/12/16 02:44:06;;;;;;;24.88;10.85;;;;;;;;;;5060434;28;20056;-58
2021/12/16 02:48:59;;;;;;;31.50;11.52;;;;;;;;;;5078367;28;20051;-58
2021/12/16 02:51:26;;;;;;;27.17;10.77;;;;;;;;;;5055647;28;20140;-57
2021/12/16 02:53:56;;;;;;;25.63;10.43;;;;;;;;;;5042380;28;20139;-58
2021/12/16 02:56:22;;;;;;;28.08;11.63;;;;;;;;;;5039827;28;20051;-57
2021/12/16 02:58:51;;;;;;;28.52;10.10;;;;;;;;;;5046303;28;20083;-57
2021/12/16 03:01:21;;;;;;;27.40;11.23;;;;;;;;;;5065070;28;20139;-58
2021/12/16 03:03:48;;;;;;;26.08;8.90;;;;;;;;;;5066074;28;20059;-58
2021/12/16 03:06:15;;;;;;;25.73;10.35;;;;;;;;;;5039890;28;20069;-58
2021/12/16 03:08:41;;;;;;;22.50;9.93;;;;;;;;;;5030497;28;20108;-58
2021/12/16 03:11:21;;;;;;;25.60;10.02;;;;;;;;;;5027752;28;20049;-58
2021/12/16 03:14:03;;;;;;;22.63;9.57;;;;;;;;;;5030165;28;20147;-59
2021/12/16 03:16:39;;;;;;;31.90;10.63;;;;;;;;;;5040946;28;20081;-58
2021/12/16 03:19:14;;;;;;;26.05;10.55;;;;;;;;;;5048928;28;20053;-59
2021/12/16 03:21:45;;;;;;;24.42;9.65;;;;;;;;;;5055863;28;20499;-58
2021/12/16 03:24:42;;;;;;;27.67;11.20;;;;;;;;;;5044699;28;20054;-57
2021/12/16 03:27:37;;;;;;;26.58;10.07;;;;;;;;;;5033250;28;20057;-57
2021/12/16 03:30:47;;;;;;;24.67;9.32;;;;;;;;;;5047883;28;20064;-57
2021/12/16 03:33:34;;;;;;;26.52;10.10;;;;;;;;;;5044337;28;20465;-58
2021/12/16 03:36:07;;;;;;;29.65;11.13;;;;;;;;;;5027748;28;20061;-57
2021/12/16 03:38:35;;;;;;;27.42;10.45;;;;;;;;;;5056714;28;20072;-57
2021/12/16 03:41:02;;;;;;;29.45;9.88;;;;;;;;;;5064450;28;20060;-57
2021/12/16 03:43:31;;;;;;;25.58;9.43;;;;;;;;;;5060273;28;20135;-57
2021/12/16 03:48:46;;;;;;;28.73;11.70;;;;;;;;;;5059500;28;20048;-57
2021/12/16 03:51:15;;;;;;;37.72;12.20;;;;;;;;;;5047519;28;20056;-57
2021/12/16 03:53:43;;;;;;;26.65;11.20;;;;;;;;;;5043633;28;20083;-57
2021/12/16 03:56:10;;;;;;;35.33;12.00;;;;;;;;;;5047259;28;20402;-58
2021/12/16 03:58:41;;;;;;;29.20;12.02;;;;;;;;;;5060349;28;20064;-57
2021/12/16 04:01:13;;;;;;;26.20;10.35;;;;;;;;;;5065366;28;20083;-57
2021/12/16 04:03:40;;;;;;;29.90;11.15;;;;;;;;;;5061223;28;20053;-58
2021/12/16 04:06:07;;;;;;;30.08;11.90;;;;;;;;;;5056646;28;20045;-57
2021/12/16 04:08:34;;;;;;;40.83;13.30;;;;;;;;;;5043558;28;20045;-57
2021/12/16 04:11:05;;;;;;;36.67;11.43;;;;;;;;;;5046294;28;20063;-58
2021/12/16 04:13:41;;;;;;;21.05;9.65;;;;;;;;;;5043541;28;20049;-57
2021/12/16 04:16:09;;;;;;;34.35;12.50;;;;;;;;;;5063963;28;20088;-57
2021/12/16 04:18:35;;;;;;;37.30;12.23;;;;;;;;;;5060934;28;20048;-57
2021/12/16 04:21:05;;;;;;;22.02;8.93;;;;;;;;;;5048591;28;20076;-57
2021/12/16 04:23:32;;;;;;;31.00;11.38;;;;;;;;;;5060526;28;20469;-58
2021/12/16 04:26:01;;;;;;;28.52;11.10;;;;;;;;;;5048246;28;20145;-57
2021/12/16 04:28:30;;;;;;;27.73;10.63;;;;;;;;;;5047295;28;20063;-58
2021/12/16 04:30:57;;;;;;;24.10;10.00;;;;;;;;;;5042190;28;20065;-58
2021/12/16 04:33:26;;;;;;;27.35;9.55;;;;;;;;;;5046055;28;20455;-58
2021/12/16 04:35:52;;;;;;;;;;;;;;;;;;5045525;28;20058;-61
2021/12/16 04:38:18;;;;;;;26.42;10.10;;;;;;;;;;5028170;28;19974;-58
2021/12/16 04:40:46;;;;;;;27.35;10.38;;;;;;;;;;5042365;28;20057;-58
2021/12/16 04:43:19;;;;;;;23.08;9.18;;;;;;;;;;5061843;28;20063;-58
2021/12/16 04:45:46;;;;;;;26.05;10.13;;;;;;;;;;5058700;28;20075;-57
2021/12/16 04:48:15;;;;;;;27.45;9.88;;;;;;;;;;5063004;28;20044;-57
2021/12/16 04:50:45;;;;;;;24.05;10.25;;;;;;;;;;5048886;28;20050;-57
2021/12/16 04:53:12;;;;;;;20.52;8.60;;;;;;;;;;5029622;28;20045;-57
2021/12/16 04:55:39;;;;;;;25.42;10.10;;;;;;;;;;5042138;28;20083;-58
2021/12/16 04:58:05;;;;;;;28.02;10.38;;;;;;;;;;5062873;28;20130;-57
2021/12/16 05:00:32;;;;;;;24.73;9.05;;;;;;;;;;5042509;28;20057;-56
2021/12/16 05:02:58;;;;;;;26.48;9.93;;;;;;;;;;5062234;28;20053;-57
2021/12/16 05:05:25;;;;;;;23.45;9.80;;;;;;;;;;5058389;28;20463;-57
2021/12/16 05:07:53;;;;;;;19.52;8.40;;;;;;;;;;5062751;28;20077;-57
2021/12/16 05:10:20;;;;;;;28.17;10.23;;;;;;;;;;5057601;28;20067;-57
2021/12/16 05:12:48;;;;;;;23.73;9.85;;;;;;;;;;5050679;28;20299;-57
2021/12/16 05:15:16;;;;;;;24.80;10.20;;;;;;;;;;5062190;28;20065;-57
2021/12/16 05:17:49;;;;;;;24.27;10.20;;;;;;;;;;5041236;28;20064;-57
2021/12/16 05:20:17;;;;;;;20.38;9.25;;;;;;;;;;5045717;28;20154;-57
2021/12/16 05:25:46;;;;;;;23.08;8.73;;;;;;;;;;5062443;28;20053;-57
2021/12/16 05:28:13;;;;;;;23.58;9.48;;;;;;;;;;5026654;28;20053;-57
2021/12/16 05:30:39;;;;;;;24.70;9.32;;;;;;;;;;5043377;28;20194;-57
2021/12/16 05:33:06;;;;;;;19.15;8.80;;;;;;;;;;5027277;28;20133;-57
2021/12/16 05:35:33;;;;;;;25.08;9.43;;;;;;;;;;5042227;28;20053;-57
2021/12/16 05:38:02;;;;;;;18.80;8.18;;;;;;;;;;5038114;28;20073;-57
2021/12/16 05:40:29;;;;;;;16.98;7.43;;;;;;;;;;5025944;28;20049;-58
2021/12/16 05:42:58;;;;;;;18.23;7.03;;;;;;;;;;5021841;28;20077;-57
2021/12/16 05:45:26;;;;;;;23.10;8.35;;;;;;;;;;5009219;28;20049;-58
2021/12/16 05:47:53;;;;;;;19.92;7.75;;;;;;;;;;5022004;28;20065;-57
2021/12/16 05:50:19;;;;;;;16.10;7.40;;;;;;;;;;5025730;28;20144;-58
2021/12/16 05:52:47;;;;;;;19.92;8.30;;;;;;;;;;5015603;28;20075;-57
2021/12/16 05:55:14;;;;;;;18.48;8.05;;;;;;;;;;5022779;28;20058;-58
2021/12/16 05:57:42;;;;;;;21.58;8.27;;;;;;;;;;5019047;28;20073;-58
2021/12/16 06:00:11;;;;;;;23.08;8.25;;;;;;;;;;5057772;28;20059;-57
2021/12/16 06:02:38;;;;;;;22.40;8.55;;;;;;;;;;5042682;28;20188;-59
2021/12/16 06:05:05;;;;;;;20.50;8.35;;;;;;;;;;5062665;28;20060;-57
2021/12/16 06:07:32;;;;;;;20.60;8.27;;;;;;;;;;5058477;28;20107;-57
2021/12/16 06:09:58;;;;;;;20.08;7.68;;;;;;;;;;5045866;28;20144;-58
2021/12/16 06:12:26;;;;;;;17.10;8.13;;;;;;;;;;5062113;28;20067;-58
2021/12/16 06:15:15;;;;;;;17.05;7.57;;;;;;;;;;5040767;28;20053;-58
2021/12/16 06:28:46;;;;;;;17.75;6.85;;;;;;;;;;5033598;28;20051;-57
2021/12/16 06:31:13;;;;;;;17.60;8.05;;;;;;;;;;5031227;28;20087;-57
2021/12/16 06:33:40;;;;;;;15.63;6.57;;;;;;;;;;5061167;28;20053;-57
2021/12/16 06:36:08;;;;;;;18.38;7.15;;;;;;;;;;5048294;28;20562;-58
2021/12/16 06:38:34;;;;;;;17.08;6.18;;;;;;;;;;5046941;28;20049;-58
2021/12/16 06:41:01;;;;;;;16.70;6.28;;;;;;;;;;5045050;28;20139;-58
2021/12/16 06:43:27;;;;;;;17.30;6.70;;;;;;;;;;5064108;28;20064;-58
2021/12/16 06:45:56;;;;;;;15.90;6.55;;;;;;;;;;5060707;28;20095;-58
2021/12/16 06:48:27;;;;;;;15.48;6.65;;;;;;;;;;5063856;28;20045;-58
2021/12/16 06:50:57;;;;;;;12.48;5.78;;;;;;;;;;5061008;28;20064;-57
2021/12/16 06:53:30;;;;;;;14.18;6.25;;;;;;;;;;5065483;28;20053;-58
2021/12/16 06:56:05;;;;;;;14.93;6.53;;;;;;;;;;5061738;28;20152;-58
2021/12/16 06:58:37;;;;;;;14.95;6.90;;;;;;;;;;5064567;28;20059;-58
2021/12/16 07:01:10;;;;;;;17.40;6.30;;;;;;;;;;5057653;28;20053;-58
2021/12/16 07:03:46;;;;;;;15.75;7.07;;;;;;;;;;5048253;28;20045;-58
2021/12/16 07:06:13;;;;;;;13.40;6.68;;;;;;;;;;5059980;28;20140;-58
2021/12/16 07:08:41;;;;;;;17.40;7.07;;;;;;;;;;5065038;28;20490;-58
2021/12/16 07:11:08;;;;;;;15.82;6.55;;;;;;;;;;5059635;28;20068;-58
2021/12/16 07:13:40;;;;;;;16.08;6.85;;;;;;;;;;5064949;28;20075;-58
2021/12/16 07:16:06;;;;;;;12.25;5.80;;;;;;;;;;5060441;28;20060;-57
2021/12/16 07:18:33;;;;;;;18.30;7.00;;;;;;;;;;5047584;28;20060;-58
2021/12/16 07:21:00;;;;;;;13.18;6.25;;;;;;;;;;5059592;28;20045;-58
2021/12/16 07:23:27;;;;;;;16.08;7.05;;;;;;;;;;5049044;28;20056;-58
2021/12/16 07:25:56;;;;;;;17.15;7.05;;;;;;;;;;5062697;28;20052;-58
2021/12/16 07:28:22;;;;;;;;;;;;;;;;;;5068554;28;20125;-58
2021/12/16 07:30:49;;;;;;;13.57;5.65;;;;;;;;;;5046346;28;19974;-58
2021/12/16 07:33:17;;;;;;;15.70;6.15;;;;;;;;;;5065072;28;20081;-58
2021/12/16 07:35:46;;;;;;;20.67;6.57;;;;;;;;;;5064566;28;20049;-58
2021/12/16 07:38:13;;;;;;;12.80;6.18;;;;;;;;;;5044204;28;20057;-58
2021/12/16 07:40:41;;;;;;;13.93;5.95;;;;;;;;;;5029601;28;20057;-60
2021/12/16 07:43:23;;;;;;;16.63;6.80;;;;;;;;;;5031014;28;20118;-58
2021/12/16 07:45:51;;;;;;;10.73;5.28;;;;;;;;;;5041424;28;20056;-59
2021/12/16 07:48:18;;;;;;;12.20;5.78;;;;;;;;;;5039999;28;20049;-59
2021/12/16 07:50:46;;;;;;;14.52;6.65;;;;;;;;;;5047797;28;20059;-58
2021/12/16 07:53:13;;;;;;;14.25;6.65;;;;;;;;;;5030744;28;20081;-59
2021/12/16 07:55:42;;;;;;;13.30;5.72;;;;;;;;;;5028401;28;20060;-59
2021/12/16 07:58:10;;;;;;;14.25;6.18;;;;;;;;;;5024683;28;20123;-58
2021/12/16 08:00:37;;;;;;;13.13;5.47;;;;;;;;;;5027716;28;20103;-58
2021/12/16 08:03:12;;;;;;;12.80;6.07;;;;;;;;;;5034390;28;20079;-58
2021/12/16 08:05:41;;;;;;;13.90;5.55;;;;;;;;;;5047784;28;20082;-58
2021/12/16 08:08:08;;;;;;;14.65;6.18;;;;;;;;;;5059695;28;20505;-58
2021/12/16 08:10:35;;;;;;;12.18;5.57;;;;;;;;;;5064132;28;20060;-59
2021/12/16 08:13:03;;;;;;;13.38;5.72;;;;;;;;;;5059402;28;20570;-60
2021/12/16 08:15:30;;;;;;;18.65;5.43;;;;;;;;;;5047699;28;20049;-59
2021/12/16 08:17:58;;;;;;;17.33;5.80;;;;;;;;;;5060368;28;20429;-57
2021/12/16 08:20:24;;;;;;;15.63;5.82;;;;;;;;;;5048315;28;20300;-59
2021/12/16 08:22:52;;;;;;;16.27;5.55;;;;;;;;;;5044091;28;20072;-59
2021/12/16 08:25:20;;;;;;;12.60;5.85;;;;;;;;;;5047428;28;20490;-60
2021/12/16 08:27:47;;;;;;;17.10;7.45;;;;;;;;;;5045079;28;20053;-59
2021/12/16 08:30:15;;;;;;;15.15;6.00;;;;;;;;;;5041096;28;20057;-58
2021/12/16 08:32:44;;;;;;;16.00;6.30;;;;;;;;;;5027684;28;20052;-59
2021/12/16 08:35:10;;;;;;;13.60;5.88;;;;;;;;;;5056492;28;20056;-59
2021/12/16 08:37:38;;;;;;;14.25;6.40;;;;;;;;;;5046783;28;20084;-59
2021/12/16 08:40:08;;;;;;;13.95;6.07;;;;;;;;;;5037282;28;20104;-59
2021/12/16 08:42:34;;;;;;;12.18;5.57;;;;;;;;;;5043408;28;20419;-59
2021/12/16 08:45:01;;;;;;;11.75;5.25;;;;;;;;;;5039190;28;20049;-59
2021/12/16 08:47:27;;;;;;;11.30;5.30;;;;;;;;;;5039340;28;20068;-58
2021/12/16 08:49:55;;;;;;;12.18;4.95;;;;;;;;;;5033677;28;20086;-59
2021/12/16 08:52:23;;;;;;;11.23;4.57;;;;;;;;;;5028916;28;20149;-59
2021/12/16 08:54:50;;;;;;;11.38;5.30;;;;;;;;;;5034934;28;20574;-58
2021/12/16 08:57:17;;;;;;;11.10;5.10;;;;;;;;;;5009032;28;20100;-59
2021/12/16 08:59:44;;;;;;;13.55;5.07;;;;;;;;;;5004271;28;20553;-58
2021/12/16 09:02:11;;;;;;;10.55;4.95;;;;;;;;;;5028646;28;20069;-58
2021/12/16 09:04:38;;;;;;;9.98;4.72;;;;;;;;;;5022774;28;20489;-58
2021/12/16 09:07:08;;;;;;;13.40;5.68;;;;;;;;;;5043010;28;20128;-58
2021/12/16 09:09:35;;;;;;;10.35;4.75;;;;;;;;;;5023046;28;20423;-58
2021/12/16 09:12:09;;;;;;;12.13;4.70;;;;;;;;;;5032254;28;20061;-58
2021/12/16 09:14:39;;;;;;;11.48;5.43;;;;;;;;;;5040261;28;20057;-58
2021/12/16 09:17:09;;;;;;;13.43;4.88;;;;;;;;;;5026900;28;20553;-58
2021/12/16 09:19:36;;;;;;;16.50;5.18;;;;;;;;;;5026264;28;20123;-58
2021/12/16 09:22:02;;;;;;;19.83;5.32;;;;;;;;;;5038864;28;20108;-58
2021/12/16 09:24:30;;;;;;;11.80;5.05;;;;;;;;;;5025810;28;20082;-58
2021/12/16 09:26:57;;;;;;;14.95;6.43;;;;;;;;;;5036777;28;20053;-58
2021/12/16 09:29:24;;;;;;;15.43;6.57;;;;;;;;;;5061990;28;20140;-58
2021/12/16 09:31:54;;;;;;;17.98;6.68;;;;;;;;;;5022437;28;20397;-58
2021/12/16 09:34:21;;;;;;;11.38;5.22;;;;;;;;;;5037394;28;20157;-58
2021/12/16 09:36:47;;;;;;;10.80;5.00;;;;;;;;;;5032140;28;20073;-58
2021/12/16 09:39:16;;;;;;;11.02;4.93;;;;;;;;;;5049635;28;20073;-58
2021/12/16 09:41:47;;;;;;;11.25;4.90;;;;;;;;;;5016045;28;20498;-59
2021/12/16 09:44:17;;;;;;;8.65;4.13;;;;;;;;;;5032493;28;20045;-59
2021/12/16 09:46:47;;;;;;;12.98;4.60;;;;;;;;;;5032466;28;20144;-58
2021/12/16 09:49:14;;;;;;;11.48;4.38;;;;;;;;;;5055993;28;20057;-58
2021/12/16 09:51:43;;;;;;;10.18;5.13;;;;;;;;;;5057768;28;20049;-59
2021/12/16 09:54:12;;;;;;;9.10;4.40;;;;;;;;;;5062118;28;20134;-59
2021/12/16 09:56:39;;;;;;;10.50;4.53;;;;;;;;;;5056198;28;20061;-58
2021/12/16 09:59:10;;;;;;;10.23;4.73;;;;;;;;;;5056713;28;20139;-58
2021/12/16 10:01:37;;;;;;;12.10;5.43;;;;;;;;;;5056894;28;20303;-58
2021/12/16 10:04:05;;;;;;;15.95;6.10;;;;;;;;;;5025761;28;20057;-58
2021/12/16 10:06:33;;;;;;;15.85;6.75;;;;;;;;;;5045869;28;20076;-58
2021/12/16 10:09:01;;;;;;;11.10;5.03;;;;;;;;;;5041795;28;20061;-58
2021/12/16 10:11:28;;;;;;;10.57;4.88;;;;;;;;;;5029654;28;20061;-58
2021/12/16 10:14:15;;;;;;;12.50;5.18;;;;;;;;;;5053611;28;20064;-59
2021/12/16 10:19:31;;;;;;;10.82;4.65;;;;;;;;;;5046984;28;20087;-60
2021/12/16 10:22:12;;;;;;;9.63;4.85;;;;;;;;;;5050790;28;20134;-58
2021/12/16 10:24:39;;;;;;;13.95;5.57;;;;;;;;;;5040972;28;20057;-57
2021/12/16 10:27:07;;;;;;;11.57;5.30;;;;;;;;;;5027897;28;20057;-57
2021/12/16 10:29:34;;;;;;;13.45;5.57;;;;;;;;;;5042262;28;20473;-58
2021/12/16 10:32:02;;;;;;;10.77;4.95;;;;;;;;;;5028181;28;20156;-56
2021/12/16 10:34:29;;;;;;;12.35;4.95;;;;;;;;;;5022285;28;20061;-58
2021/12/16 10:36:57;;;;;;;11.27;5.22;;;;;;;;;;5026063;28;20057;-58
2021/12/16 10:39:25;;;;;;;14.63;6.40;;;;;;;;;;5033339;28;20049;-57
2021/12/16 10:41:54;;;;;;;12.95;6.45;;;;;;;;;;5010483;28;20149;-57
2021/12/16 10:44:21;;;;;;;14.65;5.63;;;;;;;;;;5030667;28;20041;-58
2021/12/16 10:46:49;;;;;;;11.82;5.00;;;;;;;;;;5059183;28;20084;-58
2021/12/16 10:49:18;;;;;;;12.50;5.50;;;;;;;;;;5043974;28;20493;-58
2021/12/16 10:51:47;;;;;;;13.38;5.43;;;;;;;;;;5048395;28;20056;-57
2021/12/16 10:54:18;;;;;;;13.38;6.40;;;;;;;;;;5046611;28;20081;-57
2021/12/16 10:56:46;;;;;;;12.05;6.25;;;;;;;;;;5027789;28;20068;-57
2021/12/16 10:59:14;;;;;;;12.98;5.45;;;;;;;;;;5038108;28;20077;-58
2021/12/16 11:01:43;;;;;;;15.68;6.90;;;;;;;;;;5008478;28;20072;-58
2021/12/16 11:04:12;;;;;;;16.75;7.82;;;;;;;;;;5022242;28;20072;-55
2021/12/16 11:06:42;;;;;;;14.05;6.47;;;;;;;;;;5053911;28;20067;-58
2021/12/16 11:09:42;;;;;;;13.48;6.13;;;;;;;;;;5045836;28;20053;-58
2021/12/16 11:12:29;;;;;;;21.35;6.20;;;;;;;;;;5046092;28;20099;-58
2021/12/16 11:14:57;;;;;;;12.75;5.70;;;;;;;;;;5066130;28;20073;-58
2021/12/16 11:17:25;;;;;;;13.80;6.43;;;;;;;;;;5028828;28;20398;-57
2021/12/16 11:19:54;;;;;;;12.25;5.22;;;;;;;;;;5027043;28;20491;-58
2021/12/16 11:22:24;;;;;;;12.18;5.30;;;;;;;;;;5057903;28;20189;-57
2021/12/16 11:24:52;;;;;;;14.30;6.15;;;;;;;;;;5036437;28;20061;-58
2021/12/16 11:27:20;;;;;;;15.70;6.67;;;;;;;;;;5040012;28;20215;-57
2021/12/16 11:29:47;;;;;;;13.15;6.70;;;;;;;;;;5025029;28;20592;-58
2021/12/16 11:32:29;;;;;;;12.60;6.18;;;;;;;;;;5045377;28;20067;-58
2021/12/16 11:34:55;;;;;;;13.20;6.28;;;;;;;;;;5049770;28;20053;-57
2021/12/16 11:37:24;;;;;;;20.40;8.13;;;;;;;;;;5050360;28;20122;-58
2021/12/16 11:39:50;;;;;;;13.55;6.82;;;;;;;;;;5061214;28;20064;-59
2021/12/16 11:42:26;;;;;;;12.85;5.95;;;;;;;;;;5053373;28;20073;-58
2021/12/16 11:44:52;;;;;;;16.05;6.38;;;;;;;;;;5065180;28;20087;-58
2021/12/16 11:47:20;;;;;;;13.02;6.47;;;;;;;;;;5043510;28;20046;-62
2021/12/16 11:49:48;;;;;;;16.00;6.67;;;;;;;;;;5030197;28;20087;-59
2021/12/16 11:52:19;;;;;;;15.60;6.50;;;;;;;;;;5026284;28;20061;-57
2021/12/16 11:54:49;;;;;;;15.63;6.70;;;;;;;;;;5044165;28;20414;-58
2021/12/16 11:57:17;;;;;;;11.88;5.70;;;;;;;;;;5041223;28;20144;-58
2021/12/16 11:59:45;;;;;;;10.38;5.72;;;;;;;;;;5027517;28;20053;-57
2021/12/16 12:02:21;;;;;;;15.25;6.57;;;;;;;;;;5028121;28;20077;-58
2021/12/16 12:04:47;;;;;;;13.93;6.47;;;;;;;;;;5038355;28;20067;-58
2021/12/16 12:07:15;;;;;;;14.77;6.00;;;;;;;;;;5030243;28;20072;-58
2021/12/16 12:09:43;;;;;;;15.97;7.23;;;;;;;;;;5063813;28;20128;-58
2021/12/16 12:12:11;;;;;;;15.80;7.32;;;;;;;;;;5042096;28;20356;-57
2021/12/16 12:14:38;;;;;;;15.27;6.65;;;;;;;;;;5046600;28;20118;-57
2021/12/16 12:17:07;;;;;;;14.90;6.28;;;;;;;;;;5031903;28;21475;-57
2021/12/16 12:19:34;;;;;;;18.33;8.10;;;;;;;;;;5026442;28;20053;-57
2021/12/16 12:22:03;;;;;;;15.45;6.10;;;;;;;;;;5024435;28;20059;-58
2021/12/16 12:24:32;;;;;;;11.35;5.40;;;;;;;;;;5026698;28;20120;-57
2021/12/16 12:27:00;;;;;;;20.63;7.75;;;;;;;;;;5044410;28;20083;-57
2021/12/16 12:29:30;;;;;;;17.90;7.07;;;;;;;;;;5005898;28;20148;-58
2021/12/16 12:31:59;;;;;;;17.23;7.72;;;;;;;;;;5022968;28;20058;-57
2021/12/16 12:34:26;;;;;;;16.90;7.40;;;;;;;;;;5012729;28;20053;-58
2021/12/16 12:36:54;;;;;;;18.92;8.07;;;;;;;;;;5045792;28;20060;-57
2021/12/16 12:39:22;;;;;;;26.35;8.57;;;;;;;;;;5041738;28;20044;-58
2021/12/16 12:41:49;;;;;;;17.17;8.07;;;;;;;;;;5063414;28;20576;-58
2021/12/16 12:44:16;;;;;;;14.45;6.63;;;;;;;;;;5048634;28;20093;-58
2021/12/16 12:46:44;;;;;;;10.75;5.57;;;;;;;;;;5063348;28;20045;-58
2021/12/16 12:49:12;;;;;;;15.63;6.63;;;;;;;;;;5058640;28;20041;-58
2021/12/16 12:51:40;;;;;;;13.32;6.22;;;;;;;;;;5063176;28;20052;-58
2021/12/16 12:54:18;;;;;;;13.40;6.07;;;;;;;;;;5051612;28;20124;-58
2021/12/16 12:56:45;;;;;;;12.27;5.93;;;;;;;;;;5042851;28;20067;-58
2021/12/16 12:59:15;;;;;;;15.30;7.20;;;;;;;;;;5033380;28;20131;-57
2021/12/16 13:01:43;;;;;;;11.85;6.25;;;;;;;;;;5023440;28;20057;-58
2021/12/16 13:04:16;;;;;;;15.35;6.32;;;;;;;;;;5024287;28;20059;-58
2021/12/16 13:06:57;;;;;;;13.00;5.60;;;;;;;;;;5042726;28;20081;-58
2021/12/16 13:09:36;;;;;;;13.30;6.25;;;;;;;;;;5034738;28;20104;-58
2021/12/16 13:12:05;;;;;;;13.40;6.22;;;;;;;;;;5044145;28;20057;-58
2021/12/16 13:14:42;;;;;;;;;;;;;;;;;;5034117;28;20052;-59
2021/12/16 13:23:17;;;;;;;10.80;4.55;;;;;;;;;;5015397;28;19964;-58
2021/12/16 13:28:44;;;;;;;16.50;6.82;;;;;;;;;;5062663;28;20057;-58
2021/12/16 13:31:32;;;;;;;15.50;7.50;;;;;;;;;;5026024;28;20084;-58
2021/12/16 13:34:00;;;;;;;13.88;6.93;;;;;;;;;;5017385;28;20136;-58
2021/12/16 13:36:41;;;;;;;13.10;6.43;;;;;;;;;;5010165;28;20054;-58
2021/12/16 13:39:12;;;;;;;18.52;8.18;;;;;;;;;;5028484;28;20088;-58
2021/12/16 13:41:53;;;;;;;15.05;6.50;;;;;;;;;;5023959;28;20059;-58
2021/12/16 13:44:19;;;;;;;17.27;8.10;;;;;;;;;;5060149;28;20059;-58
2021/12/16 13:47:00;;;;;;;15.13;7.53;;;;;;;;;;5057355;28;20060;-57
2021/12/16 13:58:26;;;;;;;14.60;5.63;;;;;;;;;;5060168;28;20060;-58
2021/12/16 14:03:45;;;;;;;17.98;7.97;;;;;;;;;;5062126;28;20053;-58
2021/12/16 14:06:16;;;;;;;19.63;7.97;;;;;;;;;;5057151;28;20059;-58
2021/12/16 14:08:45;;;;;;;15.68;7.32;;;;;;;;;;5062420;28;20064;-58
2021/12/16 14:14:26;;;;;;;19.83;7.75;;;;;;;;;;5016100;28;20064;-59
2021/12/16 14:17:10;;;;;;;17.10;7.03;;;;;;;;;;5024964;28;20548;-59
2021/12/16 14:25:22;;;;;;;12.13;6.13;;;;;;;;;;5061831;28;20124;-58
2021/12/16 14:36:50;;;;;;;15.32;6.63;;;;;;;;;;5035954;28;20134;-58
2021/12/16 14:42:16;;;;;;;14.77;6.55;;;;;;;;;;5043981;28;20061;-57
2021/12/16 14:50:12;;;;;;;13.63;6.97;;;;;;;;;;5022300;28;20085;-58
2021/12/16 14:52:40;;;;;;;22.13;9.85;;;;;;;;;;5025502;28;20054;-58
2021/12/16 14:55:09;;;;;;;16.60;7.60;;;;;;;;;;5021238;28;20304;-57
2021/12/16 14:57:38;;;;;;;18.30;7.75;;;;;;;;;;5012937;28;20067;-58
2021/12/16 15:00:13;;;;;;;16.30;7.05;;;;;;;;;;5024963;28;20054;-58
2021/12/16 15:02:42;;;;;;;13.88;6.45;;;;;;;;;;5028639;28;20053;-57
2021/12/16 15:05:21;;;;;;;17.58;8.32;;;;;;;;;;5002485;28;20054;-58
2021/12/16 15:07:48;;;;;;;14.63;7.03;;;;;;;;;;5005536;28;20070;-57
2021/12/16 15:10:15;;;;;;;21.65;8.40;;;;;;;;;;5000550;28;20076;-58
2021/12/16 15:12:50;;;;;;;16.50;7.40;;;;;;;;;;5020217;28;20057;-58
2021/12/16 15:15:25;;;;;;;13.98;7.00;;;;;;;;;;5030418;28;20058;-57
2021/12/16 15:37:32;;;;;;;14.32;6.78;;;;;;;;;;5044654;28;20479;-58
2021/12/16 15:40:12;;;;;;;17.83;8.05;;;;;;;;;;5025210;28;20062;-58
2021/12/16 15:42:47;;;;;;;12.43;5.90;;;;;;;;;;5023146;28;20191;-58
2021/12/16 15:45:17;;;;;;;12.77;6.47;;;;;;;;;;5041020;28;20052;-58
2021/12/16 15:47:45;;;;;;;12.77;6.15;;;;;;;;;;5046893;28;20061;-58
2021/12/16 15:50:13;;;;;;;12.82;6.15;;;;;;;;;;5059898;28;20136;-58
2021/12/16 15:52:41;;;;;;;15.65;7.22;;;;;;;;;;5006646;28;20082;-58
2021/12/16 15:55:12;;;;;;;13.10;6.50;;;;;;;;;;5007818;28;20065;-58
2021/12/16 15:57:40;;;;;;;12.73;5.75;;;;;;;;;;5023394;28;20050;-58
2021/12/16 16:00:08;;;;;;;12.48;6.13;;;;;;;;;;5044774;28;20172;-58
2021/12/16 16:02:37;;;;;;;13.40;6.72;;;;;;;;;;5040094;28;20081;-58
2021/12/16 16:05:04;;;;;;;15.48;7.47;;;;;;;;;;5044746;28;22000;-58
2021/12/16 16:07:33;;;;;;;19.55;7.47;;;;;;;;;;5040431;28;20100;-58
2021/12/16 16:10:00;;;;;;;14.27;7.50;;;;;;;;;;5029640;28;20054;-58
2021/12/16 16:12:31;;;;;;;16.17;7.45;;;;;;;;;;5022969;28;20565;-60
2021/12/16 16:15:10;;;;;;;15.07;7.50;;;;;;;;;;5064925;28;20060;-60
2021/12/16 16:17:45;;;;;;;16.05;7.63;;;;;;;;;;5036620;28;20429;-60
2021/12/16 16:20:12;;;;;;;17.33;7.50;;;;;;;;;;5043969;28;20077;-58
2021/12/16 16:22:39;;;;;;;16.77;7.30;;;;;;;;;;5037734;28;20049;-58
2021/12/16 16:25:06;;;;;;;16.73;7.70;;;;;;;;;;5033471;28;20120;-58
2021/12/16 16:27:33;;;;;;;15.18;7.05;;;;;;;;;;5058083;28;20210;-58
2021/12/16 16:30:00;;;;;;;12.93;6.35;;;;;;;;;;5063489;28;20443;-58
2021/12/16 16:32:29;;;;;;;16.07;7.10;;;;;;;;;;5041417;28;20049;-58
2021/12/16 16:34:58;;;;;;;13.80;6.07;;;;;;;;;;5045297;28;20061;-57
2021/12/16 16:37:27;;;;;;;13.70;6.82;;;;;;;;;;5057428;28;20111;-58
2021/12/16 16:39:56;;;;;;;12.38;6.45;;;;;;;;;;5060916;28;20059;-58
2021/12/16 16:42:24;;;;;;;16.50;7.30;;;;;;;;;;5034170;28;20145;-58
2021/12/16 16:44:53;;;;;;;13.35;6.40;;;;;;;;;;5045377;28;20080;-58
2021/12/16 16:47:31;;;;;;;17.10;8.02;;;;;;;;;;5042204;28;20144;-57
2021/12/16 16:49:59;;;;;;;14.10;6.78;;;;;;;;;;5032102;28;20049;-57
2021/12/16 16:52:28;;;;;;;16.63;7.75;;;;;;;;;;5041514;28;20113;-58
2021/12/16 16:55:02;;;;;;;18.90;8.68;;;;;;;;;;5039354;28;20063;-59
2021/12/16 16:57:30;;;;;;;14.32;7.07;;;;;;;;;;5042530;28;20112;-59
2021/12/16 16:59:58;;;;;;;17.70;7.72;;;;;;;;;;5022161;28;20041;-58
2021/12/16 17:02:26;;;;;;;14.55;7.00;;;;;;;;;;5044105;28;20096;-58
2021/12/16 17:04:55;;;;;;;11.32;5.68;;;;;;;;;;5037929;28;20056;-58
2021/12/16 17:07:21;;;;;;;;;;;;;;;;;;5047354;28;20061;-58
2021/12/16 17:09:49;;;;;;;15.10;6.78;;;;;;;;;;5041796;28;19963;-58
2021/12/16 17:12:17;;;;;;;15.73;8.02;;;;;;;;;;5026760;28;20149;-57
2021/12/16 17:14:50;;;;;;;16.02;8.07;;;;;;;;;;5041152;28;20048;-58
2021/12/16 17:17:23;;;;;;;19.13;8.48;;;;;;;;;;5022662;28;20081;-58
2021/12/16 17:19:52;;;;;;;21.70;8.13;;;;;;;;;;5057702;28;20037;-58
2021/12/16 17:22:22;;;;;;;17.58;8.07;;;;;;;;;;5043999;28;20037;-58
2021/12/16 17:24:50;;;;;;;16.77;7.70;;;;;;;;;;5022169;28;20049;-58
2021/12/16 17:27:18;;;;;;;16.33;7.90;;;;;;;;;;5024993;28;20057;-58
2021/12/16 17:29:50;;;;;;;20.90;8.82;;;;;;;;;;5036876;28;20100;-58
2021/12/16 17:32:17;;;;;;;16.85;8.23;;;;;;;;;;5043092;28;20502;-58
2021/12/16 17:34:45;;;;;;;19.02;8.50;;;;;;;;;;5004980;28;20053;-58